sensor_id;sensor_type;location;lat;lon;timestamp;temperature;humidity
3954;DHT22;1991;48.682;9.030;2022-10-17T00:00:49;14.20;99.90
3954;DHT22;1991;48.682;9.030;2022-10-17T00:03:15;14.30;99.90
3954;DHT22;1991;48.682;9.030;2022-10-17T00:05:43;14.30;99.90
3954;DHT22;1991;48.682;9.030;2022-10-17T00:08:10;14.30;99.90
3954;DHT22;1991;48.682;9.030;2022-10-17T00:10:35;14.20;99.90
3954;DHT22;1991;48.682;9.030;2022-10-17T00:13:01;14.20;99.90
3954;DHT22;1991;48.682;9.030;2022-10-17T00:15:27;14.20;99.90
3954;DHT22;1991;48.682;9.030;2022-10-17T00:17:52;14.10;99.90
3954;DHT22;1991;48.682;9.030;2022-10-17T00:20:18;14.10;99.90
3954;DHT22;1991;48.682;9.030;2022-10-17T00:22:44;14.10;99.90
3954;DHT22;1991;48.682;9.030;2022-10-17T00:25:10;14.00;99.90
3954;DHT22;1991;48.682;9.030;2022-10-17T00:27:37;14.00;99.90
3954;DHT22;1991;48.682;9.030;2022-10-17T00:30:05;13.90;99.90
3954;DHT22;1991;48.682;9.030;2022-10-17T00:32:31;13.90;99.90
3954;DHT22;1991;48.682;9.030;2022-10-17T00:34:57;13.90;99.90
3954;DHT22;1991;48.682;9.030;2022-10-17T00:37:22;13.90;99.90
3954;DHT22;1991;48.682;9.030;2022-10-17T00:39:48;13.80;99.90
3954;DHT22;1991;48.682;9.030;2022-10-17T00:42:14;13.80;99.90
3954;DHT22;1991;48.682;9.030;2022-10-17T00:47:09;13.80;99.90
3954;DHT22;1991;48.682;9.030;2022-10-17T00:49:37;13.70;99.90
3954;DHT22;1991;48.682;9.030;2022-10-17T00:52:22;13.70;99.90
3954;DHT22;1991;48.682;9.030;2022-10-17T00:54:57;13.70;99.90
3954;DHT22;1991;48.682;9.030;2022-10-17T00:57:26;13.60;99.90
3954;DHT22;1991;48.682;9.030;2022-10-17T00:59:55;13.60;99.90
3954;DHT22;1991;48.682;9.030;2022-10-17T01:02:22;13.60;99.90
3954;DHT22;1991;48.682;9.030;2022-10-17T01:04:50;13.70;99.90
3954;DHT22;1991;48.682;9.030;2022-10-17T01:07:16;13.70;99.90
3954;DHT22;1991;48.682;9.030;2022-10-17T01:09:44;13.70;99.90
3954;DHT22;1991;48.682;9.030;2022-10-17T01:12:51;13.60;99.90
3954;DHT22;1991;48.682;9.030;2022-10-17T01:18:28;13.60;99.90
3954;DHT22;1991;48.682;9.030;2022-10-17T01:29:51;13.60;99.90
3954;DHT22;1991;48.682;9.030;2022-10-17T01:32:27;13.60;99.90
3954;DHT22;1991;48.682;9.030;2022-10-17T01:34:58;13.60;99.90
3954;DHT22;1991;48.682;9.030;2022-10-17T01:40:15;13.50;99.90
3954;DHT22;1991;48.682;9.030;2022-10-17T01:42:52;13.50;99.90
3954;DHT22;1991;48.682;9.030;2022-10-17T01:45:33;13.50;99.90
3954;DHT22;1991;48.682;9.030;2022-10-17T01:48:08;13.50;99.90
3954;DHT22;1991;48.682;9.030;2022-10-17T01:50:40;13.40;99.90
3954;DHT22;1991;48.682;9.030;2022-10-17T01:53:13;13.40;99.90
3954;DHT22;1991;48.682;9.030;2022-10-17T01:55:43;13.40;99.90
3954;DHT22;1991;48.682;9.030;2022-10-17T01:58:19;13.30;99.90
3954;DHT22;1991;48.682;9.030;2022-10-17T02:00:47;13.30;99.90
3954;DHT22;1991;48.682;9.030;2022-10-17T02:03:17;13.20;99.90
3954;DHT22;1991;48.682;9.030;2022-10-17T02:05:45;13.20;99.90
3954;DHT22;1991;48.682;9.030;2022-10-17T02:08:11;13.20;99.90
3954;DHT22;1991;48.682;9.030;2022-10-17T02:11:00;13.20;99.90
3954;DHT22;1991;48.682;9.030;2022-10-17T02:14:19;13.20;99.90
3954;DHT22;1991;48.682;9.030;2022-10-17T02:19:36;13.10;99.90
3954;DHT22;1991;48.682;9.030;2022-10-17T02:24:46;13.00;99.90
3954;DHT22;1991;48.682;9.030;2022-10-17T02:32:58;12.90;99.90
3954;DHT22;1991;48.682;9.030;2022-10-17T02:35:29;12.90;99.90
3954;DHT22;1991;48.682;9.030;2022-10-17T02:37:57;12.80;99.90
3954;DHT22;1991;48.682;9.030;2022-10-17T02:40:24;12.80;99.90
3954;DHT22;1991;48.682;9.030;2022-10-17T02:42:51;12.80;99.90
3954;DHT22;1991;48.682;9.030;2022-10-17T02:45:18;12.80;99.90
3954;DHT22;1991;48.682;9.030;2022-10-17T02:47:50;12.80;99.90
3954;DHT22;1991;48.682;9.030;2022-10-17T02:50:17;12.70;99.90
3954;DHT22;1991;48.682;9.030;2022-10-17T02:52:54;12.60;99.90
3954;DHT22;1991;48.682;9.030;2022-10-17T02:55:28;12.70;99.90
3954;DHT22;1991;48.682;9.030;2022-10-17T02:58:01;12.70;99.90
3954;DHT22;1991;48.682;9.030;2022-10-17T03:00:29;12.60;99.90
3954;DHT22;1991;48.682;9.030;2022-10-17T03:02:55;12.60;99.90
3954;DHT22;1991;48.682;9.030;2022-10-17T03:05:24;12.60;99.90
3954;DHT22;1991;48.682;9.030;2022-10-17T03:07:50;12.60;99.90
3954;DHT22;1991;48.682;9.030;2022-10-17T03:10:16;12.60;99.90
3954;DHT22;1991;48.682;9.030;2022-10-17T03:12:42;12.60;99.90
3954;DHT22;1991;48.682;9.030;2022-10-17T03:15:08;12.60;99.90
3954;DHT22;1991;48.682;9.030;2022-10-17T03:17:34;12.60;99.90
3954;DHT22;1991;48.682;9.030;2022-10-17T03:20:00;12.50;99.90
3954;DHT22;1991;48.682;9.030;2022-10-17T03:22:26;12.50;99.90
3954;DHT22;1991;48.682;9.030;2022-10-17T03:24:51;12.50;99.90
3954;DHT22;1991;48.682;9.030;2022-10-17T03:27:17;12.50;99.90
3954;DHT22;1991;48.682;9.030;2022-10-17T03:29:42;12.50;99.90
3954;DHT22;1991;48.682;9.030;2022-10-17T03:32:08;12.50;99.90
3954;DHT22;1991;48.682;9.030;2022-10-17T03:34:34;12.50;99.90
3954;DHT22;1991;48.682;9.030;2022-10-17T03:36:59;12.50;99.90
3954;DHT22;1991;48.682;9.030;2022-10-17T03:39:25;12.40;99.90
3954;DHT22;1991;48.682;9.030;2022-10-17T03:41:50;12.40;99.90
3954;DHT22;1991;48.682;9.030;2022-10-17T03:44:16;12.40;99.90
3954;DHT22;1991;48.682;9.030;2022-10-17T03:46:41;12.50;99.90
3954;DHT22;1991;48.682;9.030;2022-10-17T03:49:08;12.50;99.90
3954;DHT22;1991;48.682;9.030;2022-10-17T03:51:34;12.50;99.90
3954;DHT22;1991;48.682;9.030;2022-10-17T03:54:00;12.40;99.90
3954;DHT22;1991;48.682;9.030;2022-10-17T03:56:26;12.50;99.90
3954;DHT22;1991;48.682;9.030;2022-10-17T03:58:53;12.40;99.90
3954;DHT22;1991;48.682;9.030;2022-10-17T04:01:19;12.40;99.90
3954;DHT22;1991;48.682;9.030;2022-10-17T04:03:51;12.50;99.90
3954;DHT22;1991;48.682;9.030;2022-10-17T04:06:18;12.40;99.90
3954;DHT22;1991;48.682;9.030;2022-10-17T04:08:43;12.50;99.90
3954;DHT22;1991;48.682;9.030;2022-10-17T04:11:16;12.40;99.90
3954;DHT22;1991;48.682;9.030;2022-10-17T04:13:42;12.50;99.90
3954;DHT22;1991;48.682;9.030;2022-10-17T04:16:16;12.40;99.90
3954;DHT22;1991;48.682;9.030;2022-10-17T04:18:42;12.40;99.90
3954;DHT22;1991;48.682;9.030;2022-10-17T04:21:09;12.40;99.90
3954;DHT22;1991;48.682;9.030;2022-10-17T04:23:35;12.40;99.90
3954;DHT22;1991;48.682;9.030;2022-10-17T04:26:02;12.40;99.90
3954;DHT22;1991;48.682;9.030;2022-10-17T04:28:29;12.30;99.90
3954;DHT22;1991;48.682;9.030;2022-10-17T04:31:06;12.30;99.90
3954;DHT22;1991;48.682;9.030;2022-10-17T04:33:32;12.30;99.90
3954;DHT22;1991;48.682;9.030;2022-10-17T04:36:04;12.30;99.90
3954;DHT22;1991;48.682;9.030;2022-10-17T04:38:30;12.30;99.90
3954;DHT22;1991;48.682;9.030;2022-10-17T04:41:00;12.30;99.90
3954;DHT22;1991;48.682;9.030;2022-10-17T04:43:34;12.20;99.90
3954;DHT22;1991;48.682;9.030;2022-10-17T04:46:01;12.20;99.90
3954;DHT22;1991;48.682;9.030;2022-10-17T04:48:28;12.20;99.90
3954;DHT22;1991;48.682;9.030;2022-10-17T04:51:14;12.20;99.90
3954;DHT22;1991;48.682;9.030;2022-10-17T04:53:41;12.20;99.90
3954;DHT22;1991;48.682;9.030;2022-10-17T04:56:12;12.30;99.90
3954;DHT22;1991;48.682;9.030;2022-10-17T04:58:39;12.20;99.90
3954;DHT22;1991;48.682;9.030;2022-10-17T05:01:10;12.30;99.90
3954;DHT22;1991;48.682;9.030;2022-10-17T05:03:36;12.30;99.90
3954;DHT22;1991;48.682;9.030;2022-10-17T05:06:08;12.30;99.90
3954;DHT22;1991;48.682;9.030;2022-10-17T05:08:34;12.30;99.90
3954;DHT22;1991;48.682;9.030;2022-10-17T05:11:00;12.30;99.90
3954;DHT22;1991;48.682;9.030;2022-10-17T05:13:26;12.20;99.90
3954;DHT22;1991;48.682;9.030;2022-10-17T05:15:51;12.30;99.90
3954;DHT22;1991;48.682;9.030;2022-10-17T05:18:17;12.30;99.90
3954;DHT22;1991;48.682;9.030;2022-10-17T05:20:43;12.30;99.90
3954;DHT22;1991;48.682;9.030;2022-10-17T05:23:08;12.30;99.90
3954;DHT22;1991;48.682;9.030;2022-10-17T05:25:34;12.30;99.90
3954;DHT22;1991;48.682;9.030;2022-10-17T05:27:59;12.30;99.90
3954;DHT22;1991;48.682;9.030;2022-10-17T05:30:25;12.30;99.90
3954;DHT22;1991;48.682;9.030;2022-10-17T05:32:52;12.30;99.90
3954;DHT22;1991;48.682;9.030;2022-10-17T05:35:19;12.30;99.90
3954;DHT22;1991;48.682;9.030;2022-10-17T05:37:44;12.30;99.90
3954;DHT22;1991;48.682;9.030;2022-10-17T05:40:10;12.40;99.90
3954;DHT22;1991;48.682;9.030;2022-10-17T05:42:35;12.40;99.90
3954;DHT22;1991;48.682;9.030;2022-10-17T05:45:02;12.40;99.90
3954;DHT22;1991;48.682;9.030;2022-10-17T05:47:27;12.40;99.90
3954;DHT22;1991;48.682;9.030;2022-10-17T05:49:53;12.40;99.90
3954;DHT22;1991;48.682;9.030;2022-10-17T05:52:19;12.50;99.90
3954;DHT22;1991;48.682;9.030;2022-10-17T05:54:44;12.50;99.90
3954;DHT22;1991;48.682;9.030;2022-10-17T05:57:10;12.50;99.90
3954;DHT22;1991;48.682;9.030;2022-10-17T05:59:35;12.50;99.90
3954;DHT22;1991;48.682;9.030;2022-10-17T06:02:01;12.50;99.90
3954;DHT22;1991;48.682;9.030;2022-10-17T06:04:26;12.50;99.90
3954;DHT22;1991;48.682;9.030;2022-10-17T06:06:52;12.50;99.90
3954;DHT22;1991;48.682;9.030;2022-10-17T06:09:18;12.60;99.90
3954;DHT22;1991;48.682;9.030;2022-10-17T06:11:44;12.60;99.90
3954;DHT22;1991;48.682;9.030;2022-10-17T06:14:09;12.70;99.90
3954;DHT22;1991;48.682;9.030;2022-10-17T06:16:35;12.80;99.90
3954;DHT22;1991;48.682;9.030;2022-10-17T06:19:00;12.90;99.90
3954;DHT22;1991;48.682;9.030;2022-10-17T06:21:26;13.00;99.90
3954;DHT22;1991;48.682;9.030;2022-10-17T06:23:52;13.00;99.90
3954;DHT22;1991;48.682;9.030;2022-10-17T06:26:18;13.10;99.90
3954;DHT22;1991;48.682;9.030;2022-10-17T06:28:44;13.10;99.90
3954;DHT22;1991;48.682;9.030;2022-10-17T06:31:12;13.20;99.90
3954;DHT22;1991;48.682;9.030;2022-10-17T06:33:38;13.30;99.90
3954;DHT22;1991;48.682;9.030;2022-10-17T06:36:05;13.40;99.90
3954;DHT22;1991;48.682;9.030;2022-10-17T06:38:32;13.50;99.90
3954;DHT22;1991;48.682;9.030;2022-10-17T06:41:10;13.60;99.90
3954;DHT22;1991;48.682;9.030;2022-10-17T06:43:38;13.80;99.90
3954;DHT22;1991;48.682;9.030;2022-10-17T06:46:04;13.80;99.90
3954;DHT22;1991;48.682;9.030;2022-10-17T06:48:30;13.90;99.90
3954;DHT22;1991;48.682;9.030;2022-10-17T06:51:01;14.00;99.90
3954;DHT22;1991;48.682;9.030;2022-10-17T06:53:27;14.30;99.90
3954;DHT22;1991;48.682;9.030;2022-10-17T06:55:53;14.50;99.90
3954;DHT22;1991;48.682;9.030;2022-10-17T06:58:20;14.70;99.90
3954;DHT22;1991;48.682;9.030;2022-10-17T07:00:46;14.90;99.90
3954;DHT22;1991;48.682;9.030;2022-10-17T07:03:12;15.10;99.90
3954;DHT22;1991;48.682;9.030;2022-10-17T07:05:37;15.30;99.90
3954;DHT22;1991;48.682;9.030;2022-10-17T07:08:06;15.60;99.90
3954;DHT22;1991;48.682;9.030;2022-10-17T07:10:32;15.80;99.90
3954;DHT22;1991;48.682;9.030;2022-10-17T07:13:02;16.00;99.90
3954;DHT22;1991;48.682;9.030;2022-10-17T07:15:28;16.30;99.90
3954;DHT22;1991;48.682;9.030;2022-10-17T07:17:54;16.50;99.90
3954;DHT22;1991;48.682;9.030;2022-10-17T07:20:19;16.80;99.90
3954;DHT22;1991;48.682;9.030;2022-10-17T07:22:45;17.10;99.90
3954;DHT22;1991;48.682;9.030;2022-10-17T07:25:10;17.40;99.90
3954;DHT22;1991;48.682;9.030;2022-10-17T07:27:36;17.50;99.90
3954;DHT22;1991;48.682;9.030;2022-10-17T07:30:01;17.70;99.90
3954;DHT22;1991;48.682;9.030;2022-10-17T07:32:27;18.00;99.90
3954;DHT22;1991;48.682;9.030;2022-10-17T07:34:53;18.20;99.90
3954;DHT22;1991;48.682;9.030;2022-10-17T07:37:18;18.50;99.90
3954;DHT22;1991;48.682;9.030;2022-10-17T07:39:44;18.80;99.90
3954;DHT22;1991;48.682;9.030;2022-10-17T07:42:09;19.10;99.90
3954;DHT22;1991;48.682;9.030;2022-10-17T07:44:35;19.30;99.90
3954;DHT22;1991;48.682;9.030;2022-10-17T07:47:00;19.60;99.90
3954;DHT22;1991;48.682;9.030;2022-10-17T07:49:26;19.90;99.90
3954;DHT22;1991;48.682;9.030;2022-10-17T07:51:52;20.20;99.90
3954;DHT22;1991;48.682;9.030;2022-10-17T07:54:17;20.40;99.90
3954;DHT22;1991;48.682;9.030;2022-10-17T07:56:43;20.70;99.90
3954;DHT22;1991;48.682;9.030;2022-10-17T07:59:18;20.90;99.70
3954;DHT22;1991;48.682;9.030;2022-10-17T08:01:43;21.10;99.00
3954;DHT22;1991;48.682;9.030;2022-10-17T08:04:09;21.40;98.50
3954;DHT22;1991;48.682;9.030;2022-10-17T08:06:34;21.50;98.20
3954;DHT22;1991;48.682;9.030;2022-10-17T08:09:00;21.80;96.80
3954;DHT22;1991;48.682;9.030;2022-10-17T08:11:26;22.00;96.00
3954;DHT22;1991;48.682;9.030;2022-10-17T08:13:52;22.20;94.60
3954;DHT22;1991;48.682;9.030;2022-10-17T08:16:17;22.50;94.00
3954;DHT22;1991;48.682;9.030;2022-10-17T08:18:43;22.80;93.70
3954;DHT22;1991;48.682;9.030;2022-10-17T08:21:10;23.30;92.50
3954;DHT22;1991;48.682;9.030;2022-10-17T08:23:37;23.40;90.90
3954;DHT22;1991;48.682;9.030;2022-10-17T08:26:05;23.40;90.40
3954;DHT22;1991;48.682;9.030;2022-10-17T08:28:35;23.40;90.40
3954;DHT22;1991;48.682;9.030;2022-10-17T08:31:05;23.30;89.30
3954;DHT22;1991;48.682;9.030;2022-10-17T08:33:31;23.10;90.10
3954;DHT22;1991;48.682;9.030;2022-10-17T08:35:59;23.20;88.70
3954;DHT22;1991;48.682;9.030;2022-10-17T08:38:25;23.10;88.60
3954;DHT22;1991;48.682;9.030;2022-10-17T08:40:58;23.00;88.20
3954;DHT22;1991;48.682;9.030;2022-10-17T08:43:42;23.00;88.50
3954;DHT22;1991;48.682;9.030;2022-10-17T08:46:10;23.30;87.00
3954;DHT22;1991;48.682;9.030;2022-10-17T08:48:39;23.80;84.90
3954;DHT22;1991;48.682;9.030;2022-10-17T08:51:16;24.10;84.60
3954;DHT22;1991;48.682;9.030;2022-10-17T08:53:50;24.50;82.70
3954;DHT22;1991;48.682;9.030;2022-10-17T08:56:20;24.80;81.30
3954;DHT22;1991;48.682;9.030;2022-10-17T08:58:47;25.20;79.40
3954;DHT22;1991;48.682;9.030;2022-10-17T09:06:56;25.50;73.80
3954;DHT22;1991;48.682;9.030;2022-10-17T09:09:39;25.60;73.50
3954;DHT22;1991;48.682;9.030;2022-10-17T09:12:16;25.60;72.60
3954;DHT22;1991;48.682;9.030;2022-10-17T09:20:41;28.60;65.90
3954;DHT22;1991;48.682;9.030;2022-10-17T09:23:17;31.40;60.50
3954;DHT22;1991;48.682;9.030;2022-10-17T09:25:49;33.20;56.50
3954;DHT22;1991;48.682;9.030;2022-10-17T09:28:37;34.50;51.70
3954;DHT22;1991;48.682;9.030;2022-10-17T09:31:23;34.80;49.00
3954;DHT22;1991;48.682;9.030;2022-10-17T09:33:54;35.50;46.70
3954;DHT22;1991;48.682;9.030;2022-10-17T09:36:31;36.80;44.60
3954;DHT22;1991;48.682;9.030;2022-10-17T09:38:59;35.80;42.40
3954;DHT22;1991;48.682;9.030;2022-10-17T09:41:32;36.40;41.80
3954;DHT22;1991;48.682;9.030;2022-10-17T09:46:37;36.00;41.70
3954;DHT22;1991;48.682;9.030;2022-10-17T09:49:11;35.60;41.70
3954;DHT22;1991;48.682;9.030;2022-10-17T09:51:38;34.60;42.90
3954;DHT22;1991;48.682;9.030;2022-10-17T09:54:14;35.40;43.10
3954;DHT22;1991;48.682;9.030;2022-10-17T09:57:02;36.30;41.60
3954;DHT22;1991;48.682;9.030;2022-10-17T09:59:36;36.60;40.20
3954;DHT22;1991;48.682;9.030;2022-10-17T10:07:19;39.80;38.00
3954;DHT22;1991;48.682;9.030;2022-10-17T10:09:47;40.40;37.10
3954;DHT22;1991;48.682;9.030;2022-10-17T10:12:34;40.20;36.20
3954;DHT22;1991;48.682;9.030;2022-10-17T10:15:00;40.40;35.90
3954;DHT22;1991;48.682;9.030;2022-10-17T10:17:37;40.20;36.00
3954;DHT22;1991;48.682;9.030;2022-10-17T10:20:24;37.90;35.90
3954;DHT22;1991;48.682;9.030;2022-10-17T10:25:32;33.20;40.60
3954;DHT22;1991;48.682;9.030;2022-10-17T10:27:59;31.70;41.90
3954;DHT22;1991;48.682;9.030;2022-10-17T10:30:28;30.40;43.70
3954;DHT22;1991;48.682;9.030;2022-10-17T10:32:56;29.00;45.90
3954;DHT22;1991;48.682;9.030;2022-10-17T10:37:56;28.10;48.80
3954;DHT22;1991;48.682;9.030;2022-10-17T10:40:34;28.00;48.20
3954;DHT22;1991;48.682;9.030;2022-10-17T10:43:02;28.10;49.20
3954;DHT22;1991;48.682;9.030;2022-10-17T10:45:41;27.90;49.00
3954;DHT22;1991;48.682;9.030;2022-10-17T10:48:29;27.50;50.40
3954;DHT22;1991;48.682;9.030;2022-10-17T10:50:58;27.50;51.50
3954;DHT22;1991;48.682;9.030;2022-10-17T10:53:49;27.70;50.70
3954;DHT22;1991;48.682;9.030;2022-10-17T10:56:25;27.20;51.20
3954;DHT22;1991;48.682;9.030;2022-10-17T11:04:27;27.00;51.80
3954;DHT22;1991;48.682;9.030;2022-10-17T11:07:06;27.30;50.60
3954;DHT22;1991;48.682;9.030;2022-10-17T11:12:24;27.30;52.40
3954;DHT22;1991;48.682;9.030;2022-10-17T11:15:12;27.60;51.40
3954;DHT22;1991;48.682;9.030;2022-10-17T11:18:02;27.70;52.30
3954;DHT22;1991;48.682;9.030;2022-10-17T11:23:16;28.20;50.30
3954;DHT22;1991;48.682;9.030;2022-10-17T11:25:45;28.40;50.00
3954;DHT22;1991;48.682;9.030;2022-10-17T11:28:17;28.30;49.60
3954;DHT22;1991;48.682;9.030;2022-10-17T11:30:45;28.30;50.90
3954;DHT22;1991;48.682;9.030;2022-10-17T11:33:16;28.20;51.10
3954;DHT22;1991;48.682;9.030;2022-10-17T11:35:45;28.10;50.30
3954;DHT22;1991;48.682;9.030;2022-10-17T11:38:26;28.30;50.90
3954;DHT22;1991;48.682;9.030;2022-10-17T11:40:58;28.60;50.10
3954;DHT22;1991;48.682;9.030;2022-10-17T11:43:34;28.70;50.40
3954;DHT22;1991;48.682;9.030;2022-10-17T11:46:23;28.60;48.60
3954;DHT22;1991;48.682;9.030;2022-10-17T11:51:15;27.80;49.20
3954;DHT22;1991;48.682;9.030;2022-10-17T11:53:43;27.90;49.80
3954;DHT22;1991;48.682;9.030;2022-10-17T11:56:11;27.90;50.20
3954;DHT22;1991;48.682;9.030;2022-10-17T11:58:57;28.20;50.20
3954;DHT22;1991;48.682;9.030;2022-10-17T12:12:10;28.50;49.90
3954;DHT22;1991;48.682;9.030;2022-10-17T12:14:47;28.80;50.20
3954;DHT22;1991;48.682;9.030;2022-10-17T12:17:27;28.60;50.30
3954;DHT22;1991;48.682;9.030;2022-10-17T12:22:50;27.90;50.60
3954;DHT22;1991;48.682;9.030;2022-10-17T12:25:36;27.60;51.20
3954;DHT22;1991;48.682;9.030;2022-10-17T12:46:47;28.30;47.00
3954;DHT22;1991;48.682;9.030;2022-10-17T12:57:54;28.50;47.10
3954;DHT22;1991;48.682;9.030;2022-10-17T13:00:47;28.50;46.70
3954;DHT22;1991;48.682;9.030;2022-10-17T13:03:18;28.50;46.90
3954;DHT22;1991;48.682;9.030;2022-10-17T13:05:51;28.40;47.00
3954;DHT22;1991;48.682;9.030;2022-10-17T13:08:22;28.40;47.40
3954;DHT22;1991;48.682;9.030;2022-10-17T13:10:50;28.00;46.80
3954;DHT22;1991;48.682;9.030;2022-10-17T13:13:22;27.70;47.70
3954;DHT22;1991;48.682;9.030;2022-10-17T13:15:50;27.60;47.70
3954;DHT22;1991;48.682;9.030;2022-10-17T13:18:19;27.70;47.90
3954;DHT22;1991;48.682;9.030;2022-10-17T13:21:04;27.90;48.20
3954;DHT22;1991;48.682;9.030;2022-10-17T13:23:33;28.20;48.00
3954;DHT22;1991;48.682;9.030;2022-10-17T13:28:37;28.30;47.30
3954;DHT22;1991;48.682;9.030;2022-10-17T13:31:02;28.20;48.40
3954;DHT22;1991;48.682;9.030;2022-10-17T13:33:36;28.00;47.90
3954;DHT22;1991;48.682;9.030;2022-10-17T13:36:06;28.00;48.20
3954;DHT22;1991;48.682;9.030;2022-10-17T13:38:33;27.90;48.20
3954;DHT22;1991;48.682;9.030;2022-10-17T13:41:00;27.70;48.00
3954;DHT22;1991;48.682;9.030;2022-10-17T13:43:27;27.70;50.30
3954;DHT22;1991;48.682;9.030;2022-10-17T13:45:56;27.70;49.80
3954;DHT22;1991;48.682;9.030;2022-10-17T13:48:26;27.70;49.10
3954;DHT22;1991;48.682;9.030;2022-10-17T13:50:55;27.50;49.20
3954;DHT22;1991;48.682;9.030;2022-10-17T13:53:26;27.20;49.20
3954;DHT22;1991;48.682;9.030;2022-10-17T13:56:02;27.20;50.90
3954;DHT22;1991;48.682;9.030;2022-10-17T13:58:31;26.90;50.00
3954;DHT22;1991;48.682;9.030;2022-10-17T14:01:03;27.00;51.60
3954;DHT22;1991;48.682;9.030;2022-10-17T14:03:29;27.00;52.10
3954;DHT22;1991;48.682;9.030;2022-10-17T14:06:22;27.00;50.60
3954;DHT22;1991;48.682;9.030;2022-10-17T14:09:07;27.00;51.20
3954;DHT22;1991;48.682;9.030;2022-10-17T14:11:42;27.00;51.90
3954;DHT22;1991;48.682;9.030;2022-10-17T14:14:24;27.00;52.00
3954;DHT22;1991;48.682;9.030;2022-10-17T14:16:51;26.90;51.60
3954;DHT22;1991;48.682;9.030;2022-10-17T14:19:30;26.90;52.80
3954;DHT22;1991;48.682;9.030;2022-10-17T14:24:50;26.70;51.30
3954;DHT22;1991;48.682;9.030;2022-10-17T14:27:34;26.70;52.90
3954;DHT22;1991;48.682;9.030;2022-10-17T14:30:04;26.70;53.10
3954;DHT22;1991;48.682;9.030;2022-10-17T14:32:32;26.60;51.80
3954;DHT22;1991;48.682;9.030;2022-10-17T14:35:00;26.60;54.10
3954;DHT22;1991;48.682;9.030;2022-10-17T14:37:44;26.50;53.10
3954;DHT22;1991;48.682;9.030;2022-10-17T14:40:19;26.40;53.50
3954;DHT22;1991;48.682;9.030;2022-10-17T14:42:46;26.30;54.40
3954;DHT22;1991;48.682;9.030;2022-10-17T14:45:15;26.30;54.40
3954;DHT22;1991;48.682;9.030;2022-10-17T14:47:49;26.10;54.40
3954;DHT22;1991;48.682;9.030;2022-10-17T14:52:40;25.90;52.70
3954;DHT22;1991;48.682;9.030;2022-10-17T14:55:22;25.80;53.30
3954;DHT22;1991;48.682;9.030;2022-10-17T14:57:48;25.70;54.30
3954;DHT22;1991;48.682;9.030;2022-10-17T15:00:15;25.60;54.20
3954;DHT22;1991;48.682;9.030;2022-10-17T15:02:42;25.60;54.60
3954;DHT22;1991;48.682;9.030;2022-10-17T15:05:08;25.50;53.60
3954;DHT22;1991;48.682;9.030;2022-10-17T15:07:33;25.40;55.70
3954;DHT22;1991;48.682;9.030;2022-10-17T15:09:59;25.30;55.00
3954;DHT22;1991;48.682;9.030;2022-10-17T15:12:24;25.20;56.00
3954;DHT22;1991;48.682;9.030;2022-10-17T15:14:51;25.20;54.60
3954;DHT22;1991;48.682;9.030;2022-10-17T15:17:26;25.10;55.60
3954;DHT22;1991;48.682;9.030;2022-10-17T15:19:52;25.10;55.40
3954;DHT22;1991;48.682;9.030;2022-10-17T15:22:17;24.90;55.90
3954;DHT22;1991;48.682;9.030;2022-10-17T15:24:44;25.00;55.50
3954;DHT22;1991;48.682;9.030;2022-10-17T15:27:15;24.90;56.80
3954;DHT22;1991;48.682;9.030;2022-10-17T15:29:41;24.90;56.00
3954;DHT22;1991;48.682;9.030;2022-10-17T15:32:06;24.80;56.60
3954;DHT22;1991;48.682;9.030;2022-10-17T15:34:32;24.70;57.30
3954;DHT22;1991;48.682;9.030;2022-10-17T15:36:57;24.60;57.00
3954;DHT22;1991;48.682;9.030;2022-10-17T15:39:23;24.80;57.10
3954;DHT22;1991;48.682;9.030;2022-10-17T15:41:49;25.10;57.20
3954;DHT22;1991;48.682;9.030;2022-10-17T15:44:14;25.00;56.90
3954;DHT22;1991;48.682;9.030;2022-10-17T15:46:40;24.90;57.20
3954;DHT22;1991;48.682;9.030;2022-10-17T15:49:11;24.70;56.60
3954;DHT22;1991;48.682;9.030;2022-10-17T15:51:37;24.50;57.60
3954;DHT22;1991;48.682;9.030;2022-10-17T15:54:03;24.40;58.30
3954;DHT22;1991;48.682;9.030;2022-10-17T15:56:35;24.20;58.60
3954;DHT22;1991;48.682;9.030;2022-10-17T15:59:13;24.10;59.90
3954;DHT22;1991;48.682;9.030;2022-10-17T16:01:39;24.00;59.70
3954;DHT22;1991;48.682;9.030;2022-10-17T16:04:07;23.80;60.60
3954;DHT22;1991;48.682;9.030;2022-10-17T16:06:33;23.70;61.10
3954;DHT22;1991;48.682;9.030;2022-10-17T16:08:59;23.50;61.60
3954;DHT22;1991;48.682;9.030;2022-10-17T16:11:30;23.30;61.90
3954;DHT22;1991;48.682;9.030;2022-10-17T16:13:59;23.20;63.00
3954;DHT22;1991;48.682;9.030;2022-10-17T16:16:26;23.10;64.20
3954;DHT22;1991;48.682;9.030;2022-10-17T16:18:51;23.00;65.40
3954;DHT22;1991;48.682;9.030;2022-10-17T16:21:18;22.80;67.20
3954;DHT22;1991;48.682;9.030;2022-10-17T16:23:45;22.70;69.30
3954;DHT22;1991;48.682;9.030;2022-10-17T16:26:11;22.50;70.70
3954;DHT22;1991;48.682;9.030;2022-10-17T16:28:40;22.40;71.90
3954;DHT22;1991;48.682;9.030;2022-10-17T16:31:16;22.20;72.70
3954;DHT22;1991;48.682;9.030;2022-10-17T16:33:42;22.00;73.50
3954;DHT22;1991;48.682;9.030;2022-10-17T16:36:08;21.80;73.90
3954;DHT22;1991;48.682;9.030;2022-10-17T16:38:34;21.70;74.80
3954;DHT22;1991;48.682;9.030;2022-10-17T16:41:00;21.50;76.20
3954;DHT22;1991;48.682;9.030;2022-10-17T16:43:25;21.30;78.10
3954;DHT22;1991;48.682;9.030;2022-10-17T16:45:51;21.10;79.10
3954;DHT22;1991;48.682;9.030;2022-10-17T16:48:16;21.10;80.00
3954;DHT22;1991;48.682;9.030;2022-10-17T16:50:42;21.00;80.80
3954;DHT22;1991;48.682;9.030;2022-10-17T16:53:08;20.80;81.00
3954;DHT22;1991;48.682;9.030;2022-10-17T16:55:33;20.70;82.30
3954;DHT22;1991;48.682;9.030;2022-10-17T16:57:59;20.60;82.70
3954;DHT22;1991;48.682;9.030;2022-10-17T17:00:25;20.50;84.70
3954;DHT22;1991;48.682;9.030;2022-10-17T17:02:51;20.30;84.40
3954;DHT22;1991;48.682;9.030;2022-10-17T17:05:17;20.20;85.60
3954;DHT22;1991;48.682;9.030;2022-10-17T17:07:42;20.20;87.00
3954;DHT22;1991;48.682;9.030;2022-10-17T17:10:08;20.00;87.20
3954;DHT22;1991;48.682;9.030;2022-10-17T17:12:34;20.00;88.10
3954;DHT22;1991;48.682;9.030;2022-10-17T17:15:00;20.00;89.30
3954;DHT22;1991;48.682;9.030;2022-10-17T17:17:26;19.80;90.20
3954;DHT22;1991;48.682;9.030;2022-10-17T17:19:52;19.80;90.80
3954;DHT22;1991;48.682;9.030;2022-10-17T17:22:17;19.70;90.40
3954;DHT22;1991;48.682;9.030;2022-10-17T17:24:43;19.60;90.80
3954;DHT22;1991;48.682;9.030;2022-10-17T17:27:08;19.60;92.20
3954;DHT22;1991;48.682;9.030;2022-10-17T17:29:34;19.40;92.40
3954;DHT22;1991;48.682;9.030;2022-10-17T17:31:59;19.30;93.00
3954;DHT22;1991;48.682;9.030;2022-10-17T17:34:25;19.20;94.00
3954;DHT22;1991;48.682;9.030;2022-10-17T17:36:50;19.10;95.10
3954;DHT22;1991;48.682;9.030;2022-10-17T17:39:16;19.10;96.00
3954;DHT22;1991;48.682;9.030;2022-10-17T17:41:43;19.00;97.30
3954;DHT22;1991;48.682;9.030;2022-10-17T17:44:11;18.90;97.60
3954;DHT22;1991;48.682;9.030;2022-10-17T17:46:37;18.90;98.20
3954;DHT22;1991;48.682;9.030;2022-10-17T17:49:03;18.80;99.00
3954;DHT22;1991;48.682;9.030;2022-10-17T17:51:28;18.70;99.70
3954;DHT22;1991;48.682;9.030;2022-10-17T17:53:54;18.70;99.90
3954;DHT22;1991;48.682;9.030;2022-10-17T17:56:26;18.60;99.90
3954;DHT22;1991;48.682;9.030;2022-10-17T17:58:54;18.60;99.90
3954;DHT22;1991;48.682;9.030;2022-10-17T18:01:26;18.50;99.90
3954;DHT22;1991;48.682;9.030;2022-10-17T18:03:53;18.40;99.90
3954;DHT22;1991;48.682;9.030;2022-10-17T18:06:20;18.40;99.90
3954;DHT22;1991;48.682;9.030;2022-10-17T18:08:48;18.30;99.90
3954;DHT22;1991;48.682;9.030;2022-10-17T18:11:14;18.30;99.90